sensor_id;sensor_type;location;lat;lon;timestamp;pressure;altitude;pressure_sealevel;temperature;humidity
58467;BME280;44255;49.244;7.726;2022-08-07T03:31:54;98908.47;;;10.16;52.07
58467;BME280;44255;49.244;7.726;2022-08-07T03:34:20;98905.16;;;10.11;52.23
58467;BME280;44255;49.244;7.726;2022-08-07T03:36:46;98913.09;;;10.13;52.47
58467;BME280;44255;49.244;7.726;2022-08-07T03:39:12;98915.56;;;10.17;52.38
58467;BME280;44255;49.244;7.726;2022-08-07T03:41:40;98913.63;;;10.21;51.89
58467;BME280;44255;49.244;7.726;2022-08-07T03:44:05;98908.44;;;9.97;52.86
58467;BME280;44255;49.244;7.726;2022-08-07T03:46:32;98908.25;;;10.02;52.78
58467;BME280;44255;49.244;7.726;2022-08-07T03:48:58;98912.97;;;9.97;53.46
58467;BME280;44255;49.244;7.726;2022-08-07T03:51:25;98919.16;;;9.97;53.69
58467;BME280;44255;49.244;7.726;2022-08-07T03:53:50;98916.19;;;9.84;53.45
58467;BME280;44255;49.244;7.726;2022-08-07T03:56:19;98918.66;;;9.89;53.13
58467;BME280;44255;49.244;7.726;2022-08-07T03:58:46;98915.44;;;9.81;53.00
58467;BME280;44255;49.244;7.726;2022-08-07T04:01:12;98917.28;;;9.80;53.28
58467;BME280;44255;49.244;7.726;2022-08-07T04:03:38;98923.22;;;9.87;53.19
58467;BME280;44255;49.244;7.726;2022-08-07T04:06:07;98921.75;;;9.79;53.20
58467;BME280;44255;49.244;7.726;2022-08-07T04:08:33;98921.03;;;9.76;53.13
58467;BME280;44255;49.244;7.726;2022-08-07T04:10:58;98927.78;;;9.64;53.75
58467;BME280;44255;49.244;7.726;2022-08-07T04:13:24;98930.91;;;9.53;53.79
58467;BME280;44255;49.244;7.726;2022-08-07T04:15:49;98929.13;;;9.54;53.81
58467;BME280;44255;49.244;7.726;2022-08-07T04:18:15;98922.88;;;9.53;53.84
58467;BME280;44255;49.244;7.726;2022-08-07T04:20:41;98920.91;;;9.58;53.89
58467;BME280;44255;49.244;7.726;2022-08-07T04:23:08;98929.06;;;9.55;54.31
58467;BME280;44255;49.244;7.726;2022-08-07T04:25:37;98937.22;;;9.52;54.34
58467;BME280;44255;49.244;7.726;2022-08-07T04:28:07;98935.34;;;9.54;54.46
58467;BME280;44255;49.244;7.726;2022-08-07T04:30:34;98933.59;;;9.53;53.91
58467;BME280;44255;49.244;7.726;2022-08-07T04:33:00;98934.66;;;9.49;54.38
58467;BME280;44255;49.244;7.726;2022-08-07T04:35:29;98936.53;;;9.47;54.42
58467;BME280;44255;49.244;7.726;2022-08-07T04:37:55;98942.56;;;9.52;54.41
58467;BME280;44255;49.244;7.726;2022-08-07T04:40:21;98945.94;;;9.57;54.46
58467;BME280;44255;49.244;7.726;2022-08-07T04:42:46;98944.75;;;9.63;54.29
58467;BME280;44255;49.244;7.726;2022-08-07T04:45:12;98942.91;;;9.65;53.75
58467;BME280;44255;49.244;7.726;2022-08-07T04:47:42;98953.25;;;9.74;53.37
58467;BME280;44255;49.244;7.726;2022-08-07T04:50:35;98951.97;;;9.83;53.47
58467;BME280;44255;49.244;7.726;2022-08-07T04:53:09;98948.88;;;9.72;53.69
58467;BME280;44255;49.244;7.726;2022-08-07T04:55:50;98947.75;;;9.77;54.11
58467;BME280;44255;49.244;7.726;2022-08-07T04:58:40;98954.44;;;9.88;53.35
58467;BME280;44255;49.244;7.726;2022-08-07T05:04:17;98943.63;;;10.10;52.99
58467;BME280;44255;49.244;7.726;2022-08-07T05:09:23;98956.44;;;10.22;52.81
58467;BME280;44255;49.244;7.726;2022-08-07T05:11:51;98957.09;;;10.28;52.69
58467;BME280;44255;49.244;7.726;2022-08-07T05:14:31;98947.81;;;10.35;52.76
58467;BME280;44255;49.244;7.726;2022-08-07T05:16:59;98956.81;;;10.34;52.71
58467;BME280;44255;49.244;7.726;2022-08-07T05:19:31;98955.19;;;10.49;51.93
58467;BME280;44255;49.244;7.726;2022-08-07T05:21:59;98955.50;;;10.62;52.07
58467;BME280;44255;49.244;7.726;2022-08-07T05:24:27;98957.03;;;10.68;51.84
58467;BME280;44255;49.244;7.726;2022-08-07T05:26:56;98957.50;;;10.76;51.79
58467;BME280;44255;49.244;7.726;2022-08-07T05:29:22;98971.16;;;10.90;51.59
58467;BME280;44255;49.244;7.726;2022-08-07T05:31:50;98962.94;;;10.93;51.80
58467;BME280;44255;49.244;7.726;2022-08-07T05:34:16;98961.31;;;11.09;51.35
58467;BME280;44255;49.244;7.726;2022-08-07T05:36:45;98966.88;;;11.23;50.95
58467;BME280;44255;49.244;7.726;2022-08-07T05:39:12;98966.19;;;11.37;50.98
58467;BME280;44255;49.244;7.726;2022-08-07T05:41:38;98973.53;;;11.51;50.36
58467;BME280;44255;49.244;7.726;2022-08-07T05:44:07;98968.78;;;11.56;50.26
58467;BME280;44255;49.244;7.726;2022-08-07T05:46:34;98962.13;;;11.81;49.95
58467;BME280;44255;49.244;7.726;2022-08-07T05:49:00;98963.34;;;11.91;50.10
58467;BME280;44255;49.244;7.726;2022-08-07T05:51:28;98962.66;;;12.05;49.90
58467;BME280;44255;49.244;7.726;2022-08-07T05:53:54;98962.41;;;12.10;49.34
58467;BME280;44255;49.244;7.726;2022-08-07T05:56:20;98962.75;;;11.86;49.87
58467;BME280;44255;49.244;7.726;2022-08-07T05:58:46;98967.72;;;12.12;49.68
58467;BME280;44255;49.244;7.726;2022-08-07T06:01:13;98961.50;;;12.43;49.22
58467;BME280;44255;49.244;7.726;2022-08-07T06:03:43;98954.22;;;12.45;48.63
58467;BME280;44255;49.244;7.726;2022-08-07T06:06:10;98970.03;;;12.68;48.66
58467;BME280;44255;49.244;7.726;2022-08-07T06:08:37;98962.66;;;12.71;48.54
58467;BME280;44255;49.244;7.726;2022-08-07T06:11:03;98970.47;;;12.76;48.49
58467;BME280;44255;49.244;7.726;2022-08-07T06:13:29;98968.06;;;12.22;48.71
58467;BME280;44255;49.244;7.726;2022-08-07T06:15:54;98967.41;;;12.34;48.86
58467;BME280;44255;49.244;7.726;2022-08-07T06:18:22;98975.22;;;12.71;48.46
58467;BME280;44255;49.244;7.726;2022-08-07T06:20:47;98969.94;;;13.17;47.55
58467;BME280;44255;49.244;7.726;2022-08-07T06:23:13;98970.63;;;13.05;47.30
58467;BME280;44255;49.244;7.726;2022-08-07T06:25:40;98973.31;;;13.52;46.73
58467;BME280;44255;49.244;7.726;2022-08-07T06:28:07;98973.50;;;13.18;47.76
58467;BME280;44255;49.244;7.726;2022-08-07T06:30:37;98976.59;;;13.42;47.54
58467;BME280;44255;49.244;7.726;2022-08-07T06:33:04;98956.31;;;13.66;47.23
58467;BME280;44255;49.244;7.726;2022-08-07T06:35:30;98962.34;;;14.00;46.49
58467;BME280;44255;49.244;7.726;2022-08-07T06:37:56;98957.41;;;13.77;47.30
58467;BME280;44255;49.244;7.726;2022-08-07T06:40:22;98957.56;;;14.05;47.08
58467;BME280;44255;49.244;7.726;2022-08-07T06:42:48;98960.75;;;14.12;47.32
58467;BME280;44255;49.244;7.726;2022-08-07T06:45:17;98966.00;;;13.99;47.69
58467;BME280;44255;49.244;7.726;2022-08-07T06:47:43;98961.41;;;14.44;47.37
58467;BME280;44255;49.244;7.726;2022-08-07T06:50:09;98966.34;;;14.94;45.43
58467;BME280;44255;49.244;7.726;2022-08-07T06:52:37;98967.22;;;14.80;46.21
58467;BME280;44255;49.244;7.726;2022-08-07T06:55:15;98968.44;;;15.03;46.27
58467;BME280;44255;49.244;7.726;2022-08-07T06:57:42;98967.69;;;15.42;44.70
58467;BME280;44255;49.244;7.726;2022-08-07T07:00:09;98954.94;;;15.44;45.39
58467;BME280;44255;49.244;7.726;2022-08-07T07:02:35;98960.94;;;15.75;45.13
58467;BME280;44255;49.244;7.726;2022-08-07T07:05:01;98952.41;;;15.94;45.48
58467;BME280;44255;49.244;7.726;2022-08-07T07:07:27;98963.66;;;16.14;44.50
58467;BME280;44255;49.244;7.726;2022-08-07T07:09:52;98956.69;;;16.49;43.75
58467;BME280;44255;49.244;7.726;2022-08-07T07:12:37;98955.16;;;16.70;43.68
58467;BME280;44255;49.244;7.726;2022-08-07T07:15:08;98955.25;;;17.06;42.64
58467;BME280;44255;49.244;7.726;2022-08-07T07:18:03;98952.88;;;17.26;41.94
58467;BME280;44255;49.244;7.726;2022-08-07T07:20:38;98956.56;;;17.49;41.30
58467;BME280;44255;49.244;7.726;2022-08-07T07:23:06;98957.13;;;17.66;41.45
58467;BME280;44255;49.244;7.726;2022-08-07T07:25:34;98957.38;;;17.74;41.04
58467;BME280;44255;49.244;7.726;2022-08-07T07:28:20;98951.03;;;17.98;40.63
58467;BME280;44255;49.244;7.726;2022-08-07T07:30:52;98948.16;;;17.99;40.63
58467;BME280;44255;49.244;7.726;2022-08-07T07:33:20;98958.19;;;18.22;40.01
58467;BME280;44255;49.244;7.726;2022-08-07T07:35:48;98955.16;;;18.38;40.09
58467;BME280;44255;49.244;7.726;2022-08-07T07:38:17;98947.06;;;18.70;40.61
58467;BME280;44255;49.244;7.726;2022-08-07T07:40:44;98946.44;;;18.90;39.45
58467;BME280;44255;49.244;7.726;2022-08-07T07:43:11;98944.19;;;18.95;39.31
58467;BME280;44255;49.244;7.726;2022-08-07T07:45:38;98947.34;;;19.23;39.02
58467;BME280;44255;49.244;7.726;2022-08-07T07:48:05;98944.44;;;19.36;38.80
58467;BME280;44255;49.244;7.726;2022-08-07T07:50:31;98937.81;;;19.50;39.06
58467;BME280;44255;49.244;7.726;2022-08-07T07:52:57;98939.41;;;19.52;38.72
58467;BME280;44255;49.244;7.726;2022-08-07T07:55:24;98935.16;;;19.60;38.91
58467;BME280;44255;49.244;7.726;2022-08-07T07:57:52;98934.88;;;19.63;38.97
58467;BME280;44255;49.244;7.726;2022-08-07T08:00:21;98924.22;;;19.71;38.99
58467;BME280;44255;49.244;7.726;2022-08-07T08:02:49;98930.34;;;19.84;38.56
58467;BME280;44255;49.244;7.726;2022-08-07T08:05:18;98925.47;;;19.88;38.92
58467;BME280;44255;49.244;7.726;2022-08-07T08:07:45;98916.97;;;20.03;38.72
58467;BME280;44255;49.244;7.726;2022-08-07T08:10:10;98921.06;;;20.18;39.80
58467;BME280;44255;49.244;7.726;2022-08-07T08:12:38;98914.38;;;20.32;39.12
58467;BME280;44255;49.244;7.726;2022-08-07T08:15:03;98913.03;;;20.48;38.57
58467;BME280;44255;49.244;7.726;2022-08-07T08:17:30;98915.38;;;20.62;39.41
58467;BME280;44255;49.244;7.726;2022-08-07T08:20:02;98917.25;;;20.72;38.81
58467;BME280;44255;49.244;7.726;2022-08-07T08:22:28;98914.84;;;20.78;38.42
58467;BME280;44255;49.244;7.726;2022-08-07T08:25:13;98913.69;;;20.91;38.72
58467;BME280;44255;49.244;7.726;2022-08-07T08:27:59;98920.44;;;20.96;38.07
58467;BME280;44255;49.244;7.726;2022-08-07T08:30:27;98914.16;;;21.16;37.51
58467;BME280;44255;49.244;7.726;2022-08-07T08:32:57;98915.63;;;21.30;37.91
58467;BME280;44255;49.244;7.726;2022-08-07T08:35:25;98909.16;;;21.31;37.50
58467;BME280;44255;49.244;7.726;2022-08-07T08:37:55;98907.28;;;21.41;37.30
58467;BME280;44255;49.244;7.726;2022-08-07T08:40:35;98904.25;;;21.54;37.81
58467;BME280;44255;49.244;7.726;2022-08-07T08:43:17;98910.72;;;21.53;37.19
58467;BME280;44255;49.244;7.726;2022-08-07T08:46:08;98902.41;;;21.54;37.86
58467;BME280;44255;49.244;7.726;2022-08-07T08:48:52;98904.53;;;21.61;37.51
58467;BME280;44255;49.244;7.726;2022-08-07T08:51:27;98900.63;;;21.73;37.01
58467;BME280;44255;49.244;7.726;2022-08-07T08:54:03;98898.44;;;21.87;37.17
58467;BME280;44255;49.244;7.726;2022-08-07T08:56:39;98885.94;;;21.94;36.78
58467;BME280;44255;49.244;7.726;2022-08-07T09:10:22;98890.72;;;22.20;36.39
58467;BME280;44255;49.244;7.726;2022-08-07T09:21:37;98888.09;;;22.28;36.27
58467;BME280;44255;49.244;7.726;2022-08-07T09:24:30;98885.19;;;22.39;36.41
58467;BME280;44255;49.244;7.726;2022-08-07T09:32:27;98890.31;;;22.15;36.18
58467;BME280;44255;49.244;7.726;2022-08-07T09:35:10;98891.41;;;22.32;35.95
58467;BME280;44255;49.244;7.726;2022-08-07T09:43:02;98875.25;;;22.38;35.20
58467;BME280;44255;49.244;7.726;2022-08-07T09:48:41;98872.13;;;22.61;34.32
58467;BME280;44255;49.244;7.726;2022-08-07T09:53:57;98873.22;;;22.68;34.83
58467;BME280;44255;49.244;7.726;2022-08-07T10:02:27;98849.56;;;23.14;34.34
58467;BME280;44255;49.244;7.726;2022-08-07T10:05:54;98849.91;;;23.29;33.68
58467;BME280;44255;49.244;7.726;2022-08-07T10:11:13;98827.44;;;23.43;31.97
58467;BME280;44255;49.244;7.726;2022-08-07T10:13:54;98829.53;;;23.49;32.12
58467;BME280;44255;49.244;7.726;2022-08-07T10:24:57;98824.38;;;23.46;28.64
58467;BME280;44255;49.244;7.726;2022-08-07T10:30:17;98825.53;;;23.44;30.52
58467;BME280;44255;49.244;7.726;2022-08-07T10:36:14;98826.75;;;23.05;28.44
58467;BME280;44255;49.244;7.726;2022-08-07T10:41:32;98818.44;;;23.15;28.32
58467;BME280;44255;49.244;7.726;2022-08-07T10:44:06;98811.00;;;23.17;30.11
58467;BME280;44255;49.244;7.726;2022-08-07T10:47:17;98821.38;;;23.13;30.20
58467;BME280;44255;49.244;7.726;2022-08-07T10:50:00;98822.31;;;23.22;28.72
58467;BME280;44255;49.244;7.726;2022-08-07T10:52:33;98811.03;;;23.25;27.44
58467;BME280;44255;49.244;7.726;2022-08-07T10:58:08;98813.22;;;23.39;27.19
58467;BME280;44255;49.244;7.726;2022-08-07T11:00:45;98803.84;;;23.42;27.19
58467;BME280;44255;49.244;7.726;2022-08-07T11:03:28;98796.31;;;23.44;26.80
58467;BME280;44255;49.244;7.726;2022-08-07T11:06:12;98798.06;;;23.53;26.98
58467;BME280;44255;49.244;7.726;2022-08-07T11:11:28;98809.66;;;23.47;27.42
58467;BME280;44255;49.244;7.726;2022-08-07T11:14:09;98804.56;;;23.52;26.24
58467;BME280;44255;49.244;7.726;2022-08-07T11:17:06;98810.78;;;23.63;27.29
58467;BME280;44255;49.244;7.726;2022-08-07T11:24:49;98797.81;;;23.38;25.94
58467;BME280;44255;49.244;7.726;2022-08-07T11:27:20;98793.13;;;23.31;25.33
58467;BME280;44255;49.244;7.726;2022-08-07T11:30:00;98794.16;;;23.30;24.82
58467;BME280;44255;49.244;7.726;2022-08-07T11:32:33;98793.28;;;23.56;24.87
58467;BME280;44255;49.244;7.726;2022-08-07T11:35:15;98792.13;;;23.85;24.96
58467;BME280;44255;49.244;7.726;2022-08-07T11:38:06;98785.34;;;24.05;24.24
58467;BME280;44255;49.244;7.726;2022-08-07T11:40:35;98789.16;;;24.21;24.73
58467;BME280;44255;49.244;7.726;2022-08-07T11:49:06;98775.31;;;24.31;24.40
58467;BME280;44255;49.244;7.726;2022-08-07T11:51:58;98787.09;;;24.99;23.47
58467;BME280;44255;49.244;7.726;2022-08-07T11:54:35;98778.31;;;25.45;22.89
58467;BME280;44255;49.244;7.726;2022-08-07T11:57:15;98776.34;;;25.14;22.59
58467;BME280;44255;49.244;7.726;2022-08-07T12:02:46;98759.25;;;25.69;22.63
58467;BME280;44255;49.244;7.726;2022-08-07T12:08:13;98766.75;;;27.40;21.63
58467;BME280;44255;49.244;7.726;2022-08-07T12:10:46;98765.31;;;28.19;21.07
58467;BME280;44255;49.244;7.726;2022-08-07T12:13:37;98764.38;;;29.07;19.84
58467;BME280;44255;49.244;7.726;2022-08-07T12:16:10;98756.59;;;29.46;18.76
58467;BME280;44255;49.244;7.726;2022-08-07T12:19:00;98749.47;;;30.00;18.53
58467;BME280;44255;49.244;7.726;2022-08-07T12:24:36;98752.09;;;30.78;18.62
58467;BME280;44255;49.244;7.726;2022-08-07T12:27:13;98758.72;;;30.21;19.09
58467;BME280;44255;49.244;7.726;2022-08-07T12:29:50;98758.88;;;30.75;18.82
58467;BME280;44255;49.244;7.726;2022-08-07T12:34:50;98755.50;;;30.86;19.10
58467;BME280;44255;49.244;7.726;2022-08-07T12:37:16;98761.47;;;30.97;18.62
58467;BME280;44255;49.244;7.726;2022-08-07T12:39:45;98752.72;;;30.80;18.76
58467;BME280;44255;49.244;7.726;2022-08-07T12:42:14;98746.56;;;30.91;19.25
58467;BME280;44255;49.244;7.726;2022-08-07T12:44:44;98739.06;;;29.60;19.93
58467;BME280;44255;49.244;7.726;2022-08-07T12:52:45;98729.91;;;31.52;17.55
58467;BME280;44255;49.244;7.726;2022-08-07T12:55:28;98737.59;;;31.43;18.65
58467;BME280;44255;49.244;7.726;2022-08-07T12:57:56;98737.09;;;31.80;18.23
58467;BME280;44255;49.244;7.726;2022-08-07T13:00:30;98738.25;;;31.38;18.89
58467;BME280;44255;49.244;7.726;2022-08-07T13:03:09;98730.38;;;31.35;19.04
58467;BME280;44255;49.244;7.726;2022-08-07T13:11:51;98731.63;;;31.39;18.82
58467;BME280;44255;49.244;7.726;2022-08-07T13:14:45;98725.81;;;32.34;17.63
58467;BME280;44255;49.244;7.726;2022-08-07T13:17:22;98723.16;;;32.52;16.92
58467;BME280;44255;49.244;7.726;2022-08-07T13:19:59;98724.88;;;33.11;16.95
58467;BME280;44255;49.244;7.726;2022-08-07T13:25:45;98718.38;;;33.61;16.63
58467;BME280;44255;49.244;7.726;2022-08-07T13:28:22;98716.91;;;33.77;16.42
58467;BME280;44255;49.244;7.726;2022-08-07T13:30:57;98717.66;;;34.52;15.76
58467;BME280;44255;49.244;7.726;2022-08-07T13:33:31;98714.88;;;34.83;15.56
58467;BME280;44255;49.244;7.726;2022-08-07T13:36:07;98716.75;;;34.82;15.50
58467;BME280;44255;49.244;7.726;2022-08-07T13:38:50;98713.41;;;35.04;14.90
58467;BME280;44255;49.244;7.726;2022-08-07T13:41:32;98710.97;;;34.72;15.69
58467;BME280;44255;49.244;7.726;2022-08-07T13:44:01;98710.81;;;34.67;15.35
58467;BME280;44255;49.244;7.726;2022-08-07T13:46:30;98708.59;;;34.26;15.65
58467;BME280;44255;49.244;7.726;2022-08-07T13:48:59;98705.22;;;34.24;15.53
58467;BME280;44255;49.244;7.726;2022-08-07T13:51:26;98701.81;;;34.22;16.09
58467;BME280;44255;49.244;7.726;2022-08-07T13:53:55;98704.41;;;33.49;15.77
58467;BME280;44255;49.244;7.726;2022-08-07T13:56:23;98699.69;;;33.50;16.73
58467;BME280;44255;49.244;7.726;2022-08-07T13:58:51;98685.16;;;33.48;15.92
58467;BME280;44255;49.244;7.726;2022-08-07T14:01:32;98679.84;;;32.77;17.11
58467;BME280;44255;49.244;7.726;2022-08-07T14:04:02;98685.41;;;31.99;18.10
58467;BME280;44255;49.244;7.726;2022-08-07T14:06:33;98687.13;;;31.34;18.86
58467;BME280;44255;49.244;7.726;2022-08-07T14:08:59;98679.25;;;31.24;18.75
58467;BME280;44255;49.244;7.726;2022-08-07T14:11:27;98683.31;;;30.61;19.32
58467;BME280;44255;49.244;7.726;2022-08-07T14:13:54;98680.97;;;30.65;19.14
58467;BME280;44255;49.244;7.726;2022-08-07T14:16:29;98675.38;;;30.38;19.28
58467;BME280;44255;49.244;7.726;2022-08-07T14:18:56;98675.34;;;30.24;19.43
58467;BME280;44255;49.244;7.726;2022-08-07T14:21:27;98677.38;;;29.95;19.37
58467;BME280;44255;49.244;7.726;2022-08-07T14:24:03;98674.19;;;29.98;19.52
58467;BME280;44255;49.244;7.726;2022-08-07T14:26:38;98676.16;;;30.11;19.86
58467;BME280;44255;49.244;7.726;2022-08-07T14:29:08;98680.03;;;29.68;19.49
58467;BME280;44255;49.244;7.726;2022-08-07T14:31:34;98663.00;;;29.65;20.06
58467;BME280;44255;49.244;7.726;2022-08-07T14:34:00;98651.53;;;29.26;20.45
58467;BME280;44255;49.244;7.726;2022-08-07T14:36:26;98654.31;;;29.32;20.69
58467;BME280;44255;49.244;7.726;2022-08-07T14:38:59;98665.47;;;29.17;20.30
58467;BME280;44255;49.244;7.726;2022-08-07T14:41:28;98659.06;;;29.10;20.33
58467;BME280;44255;49.244;7.726;2022-08-07T14:43:57;98662.94;;;28.94;20.70
58467;BME280;44255;49.244;7.726;2022-08-07T14:46:23;98660.06;;;29.02;20.54
58467;BME280;44255;49.244;7.726;2022-08-07T14:48:52;98659.94;;;29.17;20.34
58467;BME280;44255;49.244;7.726;2022-08-07T14:51:22;98654.84;;;29.14;20.46
58467;BME280;44255;49.244;7.726;2022-08-07T14:53:52;98649.28;;;29.08;20.18
58467;BME280;44255;49.244;7.726;2022-08-07T14:56:20;98646.66;;;28.49;20.57
58467;BME280;44255;49.244;7.726;2022-08-07T14:58:50;98652.81;;;28.73;20.80
58467;BME280;44255;49.244;7.726;2022-08-07T15:01:17;98649.09;;;28.87;21.06
58467;BME280;44255;49.244;7.726;2022-08-07T15:03:43;98642.28;;;28.83;20.38
58467;BME280;44255;49.244;7.726;2022-08-07T15:06:09;98639.56;;;28.90;20.56
58467;BME280;44255;49.244;7.726;2022-08-07T15:08:38;98636.53;;;28.13;20.96
58467;BME280;44255;49.244;7.726;2022-08-07T15:11:09;98643.09;;;28.33;20.93
58467;BME280;44255;49.244;7.726;2022-08-07T15:14:02;98641.00;;;28.36;20.96
58467;BME280;44255;49.244;7.726;2022-08-07T15:16:44;98647.56;;;28.13;20.75
58467;BME280;44255;49.244;7.726;2022-08-07T15:19:14;98625.66;;;28.26;20.45
58467;BME280;44255;49.244;7.726;2022-08-07T15:21:48;98630.88;;;28.21;20.54
58467;BME280;44255;49.244;7.726;2022-08-07T15:24:27;98627.84;;;27.94;20.56
58467;BME280;44255;49.244;7.726;2022-08-07T15:26:58;98629.84;;;28.22;21.32
58467;BME280;44255;49.244;7.726;2022-08-07T15:29:33;98631.50;;;28.16;20.37
58467;BME280;44255;49.244;7.726;2022-08-07T15:32:01;98628.53;;;28.18;20.11
58467;BME280;44255;49.244;7.726;2022-08-07T15:34:33;98630.13;;;28.05;20.31
58467;BME280;44255;49.244;7.726;2022-08-07T15:37:03;98631.75;;;28.00;21.06
58467;BME280;44255;49.244;7.726;2022-08-07T15:39:35;98620.31;;;28.03;20.63
58467;BME280;44255;49.244;7.726;2022-08-07T15:42:02;98621.69;;;27.77;20.80
58467;BME280;44255;49.244;7.726;2022-08-07T15:44:29;98619.22;;;27.82;21.56
58467;BME280;44255;49.244;7.726;2022-08-07T15:47:06;98624.53;;;27.84;20.49
58467;BME280;44255;49.244;7.726;2022-08-07T15:49:34;98617.56;;;28.03;20.42
58467;BME280;44255;49.244;7.726;2022-08-07T15:52:01;98619.59;;;28.16;19.57
58467;BME280;44255;49.244;7.726;2022-08-07T15:54:35;98621.94;;;27.97;19.67
58467;BME280;44255;49.244;7.726;2022-08-07T15:57:02;98622.50;;;28.08;20.03
58467;BME280;44255;49.244;7.726;2022-08-07T15:59:29;98617.13;;;27.84;20.09
58467;BME280;44255;49.244;7.726;2022-08-07T16:01:55;98621.81;;;27.69;20.67
58467;BME280;44255;49.244;7.726;2022-08-07T16:04:27;98622.25;;;27.87;20.50
58467;BME280;44255;49.244;7.726;2022-08-07T16:06:57;98623.88;;;27.97;20.47
58467;BME280;44255;49.244;7.726;2022-08-07T16:09:46;98618.03;;;28.07;19.70
58467;BME280;44255;49.244;7.726;2022-08-07T16:12:29;98612.31;;;28.08;20.24
58467;BME280;44255;49.244;7.726;2022-08-07T16:15:23;98619.13;;;28.12;19.84
58467;BME280;44255;49.244;7.726;2022-08-07T16:21:02;98614.34;;;28.21;20.00
58467;BME280;44255;49.244;7.726;2022-08-07T16:23:43;98609.09;;;28.26;19.83
58467;BME280;44255;49.244;7.726;2022-08-07T16:29:29;98619.59;;;28.59;20.11
58467;BME280;44255;49.244;7.726;2022-08-07T16:32:09;98618.28;;;28.55;19.61
58467;BME280;44255;49.244;7.726;2022-08-07T16:34:54;98608.97;;;28.56;18.94
58467;BME280;44255;49.244;7.726;2022-08-07T16:40:32;98613.22;;;28.59;19.66
58467;BME280;44255;49.244;7.726;2022-08-07T16:51:08;98623.59;;;28.85;18.79
58467;BME280;44255;49.244;7.726;2022-08-07T16:56:19;98623.13;;;28.75;18.31
58467;BME280;44255;49.244;7.726;2022-08-07T17:04:43;98625.53;;;28.85;18.52
58467;BME280;44255;49.244;7.726;2022-08-07T17:07:27;98618.25;;;28.77;18.27
58467;BME280;44255;49.244;7.726;2022-08-07T17:10:06;98614.50;;;28.85;18.53
58467;BME280;44255;49.244;7.726;2022-08-07T17:15:35;98617.78;;;28.73;18.42
58467;BME280;44255;49.244;7.726;2022-08-07T17:18:33;98618.13;;;28.92;18.25
58467;BME280;44255;49.244;7.726;2022-08-07T17:21:02;98620.19;;;28.83;18.38
58467;BME280;44255;49.244;7.726;2022-08-07T17:23:36;98616.75;;;29.03;18.45
58467;BME280;44255;49.244;7.726;2022-08-07T17:28:46;98626.50;;;28.99;18.63
58467;BME280;44255;49.244;7.726;2022-08-07T17:31:12;98627.88;;;28.59;19.50
58467;BME280;44255;49.244;7.726;2022-08-07T17:33:46;98631.75;;;28.43;18.95
58467;BME280;44255;49.244;7.726;2022-08-07T17:36:17;98628.59;;;28.25;19.41
58467;BME280;44255;49.244;7.726;2022-08-07T17:38:49;98626.22;;;27.85;20.66
58467;BME280;44255;49.244;7.726;2022-08-07T17:41:20;98625.34;;;27.02;20.68
58467;BME280;44255;49.244;7.726;2022-08-07T17:44:03;98637.09;;;26.58;20.72
58467;BME280;44255;49.244;7.726;2022-08-07T17:46:58;98638.06;;;25.95;21.35
58467;BME280;44255;49.244;7.726;2022-08-07T17:49:35;98639.94;;;25.71;21.61
58467;BME280;44255;49.244;7.726;2022-08-07T17:52:09;98644.00;;;25.84;21.42
58467;BME280;44255;49.244;7.726;2022-08-07T17:57:20;98652.03;;;25.45;22.12
58467;BME280;44255;49.244;7.726;2022-08-07T17:59:51;98644.56;;;25.31;22.64
58467;BME280;44255;49.244;7.726;2022-08-07T18:05:16;98650.34;;;24.71;24.41
58467;BME280;44255;49.244;7.726;2022-08-07T18:07:54;98645.88;;;24.54;24.78
58467;BME280;44255;49.244;7.726;2022-08-07T18:10:31;98659.38;;;24.30;24.49
58467;BME280;44255;49.244;7.726;2022-08-07T18:15:45;98654.06;;;24.20;24.68
58467;BME280;44255;49.244;7.726;2022-08-07T18:18:15;98667.06;;;24.02;25.70
58467;BME280;44255;49.244;7.726;2022-08-07T18:20:57;98662.03;;;23.89;25.71
58467;BME280;44255;49.244;7.726;2022-08-07T18:23:37;98662.47;;;23.67;26.07
58467;BME280;44255;49.244;7.726;2022-08-07T18:26:05;98670.44;;;23.52;27.45
58467;BME280;44255;49.244;7.726;2022-08-07T18:28:54;98662.06;;;23.19;27.03
58467;BME280;44255;49.244;7.726;2022-08-07T18:31:46;98666.13;;;23.15;26.01
58467;BME280;44255;49.244;7.726;2022-08-07T18:34:21;98662.41;;;23.16;26.70
58467;BME280;44255;49.244;7.726;2022-08-07T18:42:20;98674.25;;;22.54;28.29
58467;BME280;44255;49.244;7.726;2022-08-07T18:47:26;98683.69;;;22.23;29.38
58467;BME280;44255;49.244;7.726;2022-08-07T18:50:07;98688.59;;;22.02;29.92
58467;BME280;44255;49.244;7.726;2022-08-07T18:53:00;98684.00;;;21.74;30.37
58467;BME280;44255;49.244;7.726;2022-08-07T19:03:46;98699.53;;;21.36;30.42
58467;BME280;44255;49.244;7.726;2022-08-07T19:09:08;98707.38;;;21.01;31.49
58467;BME280;44255;49.244;7.726;2022-08-07T19:11:48;98706.97;;;20.86;32.38
58467;BME280;44255;49.244;7.726;2022-08-07T19:14:38;98709.44;;;20.69;32.46
58467;BME280;44255;49.244;7.726;2022-08-07T19:17:07;98716.88;;;20.48;32.72
58467;BME280;44255;49.244;7.726;2022-08-07T19:19:57;98715.72;;;20.40;32.40
58467;BME280;44255;49.244;7.726;2022-08-07T19:22:36;98723.88;;;20.21;33.18
58467;BME280;44255;49.244;7.726;2022-08-07T19:25:14;98724.28;;;20.06;33.76
58467;BME280;44255;49.244;7.726;2022-08-07T19:27:42;98719.50;;;19.79;34.26
58467;BME280;44255;49.244;7.726;2022-08-07T19:30:11;98724.88;;;19.69;34.38
58467;BME280;44255;49.244;7.726;2022-08-07T19:32:40;98736.16;;;19.64;35.29
58467;BME280;44255;49.244;7.726;2022-08-07T19:35:10;98733.69;;;19.51;35.20
58467;BME280;44255;49.244;7.726;2022-08-07T19:37:37;98732.72;;;19.31;35.32
58467;BME280;44255;49.244;7.726;2022-08-07T19:40:06;98744.41;;;19.22;35.20
58467;BME280;44255;49.244;7.726;2022-08-07T19:42:39;98736.84;;;19.04;35.47
58467;BME280;44255;49.244;7.726;2022-08-07T19:45:11;98734.78;;;18.96;36.00
58467;BME280;44255;49.244;7.726;2022-08-07T19:47:38;98739.03;;;18.89;35.98
58467;BME280;44255;49.244;7.726;2022-08-07T19:50:05;98744.84;;;18.84;36.74